SCC: Laguna Seca: GS practice one times

Pos Num Class Team Time Gap To 1st Speed --- --- ----- ------------------------------ ---------- ------- ------- ------- 1. 09 GS Automatic Racing 1:36.833 83.203 2. 137...

Pos Num Class Team                                 Time     Gap  To 1st   Speed
--- --- ----- ------------------------------ ---------- ------- ------- -------
 1.  09 GS    Automatic Racing                 1:36.833                  83.203
 2. 137 GS    JBS Motorsports                  1:37.108   0.275   0.275  82.967
 3.  91 GS    Automatic Racing                 1:37.192   0.084   0.359  82.896
 4.   5 GS    Blackforest Motorsports          1:37.216   0.024   0.383  82.875
 5.  90 GS    Automatic Racing                 1:37.228   0.012   0.395  82.865
 6.  20 GS    Horsepower Ranch                 1:37.238   0.010   0.405  82.856
 7.  37 GS    JBS Racing                       1:37.343   0.105   0.510  82.767
 8.  39 GS    TRG                              1:37.532   0.189   0.699  82.607
 9.  25 GS    Fiorano/C-MAX Racing             1:37.670   0.138   0.837  82.490
10.  41 GS    TRG                              1:37.751   0.081   0.918  82.422
11.  79 GS    Kinetic Motorsports              1:37.763   0.012   0.930  82.412
12.  40 GS    TRG                              1:37.793   0.030   0.960  82.386
13.   4 GS    Blackforest Motorsports          1:37.947   0.154   1.114  82.257
14.  97 GS    Turner Motorsport                1:37.974   0.027   1.141  82.234
15.  42 GS    TRG                              1:38.012   0.038   1.179  82.202
16.  83 GS    BGB Motorsports                  1:38.030   0.018   1.197  82.187
17.  99 GS    Automatic Racing                 1:38.223   0.193   1.390  82.026
18.  80 GS    Kinetic Motorsports              1:38.225   0.002   1.392  82.024
19. 150 GS    Jim Click Racing                 1:38.257   0.032   1.424  81.997
20.  33 GS    Playboy Racing                   1:38.334   0.077   1.501  81.933
21.  46 GS    Fall-Line Motorsports            1:38.438   0.104   1.605  81.846
22.  96 GS    Turner Motorsport                1:38.567   0.129   1.734  81.739
23.  26 GS    Fiorano/C-MAX Racing             1:38.706   0.139   1.873  81.624
24.  55 GS    Hyper Sport                      1:38.856   0.150   2.023  81.500
25.  88 GS    LNS Motorsport                   1:38.877   0.021   2.044  81.483
26.  59 GS    Rehagen Racing                   1:39.019   0.142   2.186  81.366
27.  49 GS    Marcus Motorsports               1:39.220   0.201   2.387  81.201
28. 154 GS    Jim Click Racing                 1:39.716   0.496   2.883  80.797
29.  17 GS    Team Centurion                   1:39.739   0.023   2.906  80.779
30.  60 GS    Horsepower Ranch                 1:39.962   0.223   3.129  80.599
31.  11 GS    Southwest Racers Group           1:39.983   0.021   3.150  80.582
32.  54 GS    Hyper Sport                      1:40.411   0.428   3.578  80.238
33.  87 GS    LNS Motorsport                   1:40.657   0.246   3.824  80.042
34.  89 GS    LNS Motorsport                   1:40.783   0.126   3.950  79.942
35.  78 GS    Kinetic Motorsports              1:41.156   0.373   4.323  79.647
36.  28 GS    Fall-Line Motorsports            1:41.169   0.013   4.336  79.637
37.  43 GS    ASC Motorsports                  1:41.696   0.527   4.863  79.224
38.  38 GS    BGB Motorsports                  1:41.985   0.289   5.152  79.000
39.  77 GS    Blackforest Motorsports          1:42.862   0.877   6.029  78.326
40.   6 GS    Blackforest Motorsports          1:43.751   0.889   6.918  77.655
41.  52 GS    Rehagen Racing                   2:06.252  22.501  29.419  63.815
42.  36 GS    NoHotWire Racing                 2:29.889  23.637  53.056  53.752

Be part of something big

Write a comment
Show comments
About this article
Series Grand-Am
Drivers Jim Click
Teams Kinetic Motorsports , Rehagen Racing , Turner Motorsport , Automatic Racing , Fall-Line Motorsports